sensor_id;sensor_type;location;lat;lon;timestamp;P1;durP1;ratioP1;P2;durP2;ratioP2
29730;SDS011;16639;51.488;0.152;2023-02-22T00:00:29;35.78;;;22.80;;
29730;SDS011;16639;51.488;0.152;2023-02-22T00:05:42;38.88;;;22.58;;
29730;SDS011;16639;51.488;0.152;2023-02-22T00:08:13;36.88;;;24.42;;
29730;SDS011;16639;51.488;0.152;2023-02-22T00:10:42;37.60;;;21.63;;
29730;SDS011;16639;51.488;0.152;2023-02-22T00:13:11;35.17;;;22.08;;
29730;SDS011;16639;51.488;0.152;2023-02-22T00:15:40;39.75;;;23.83;;
29730;SDS011;16639;51.488;0.152;2023-02-22T00:18:14;35.72;;;23.63;;
29730;SDS011;16639;51.488;0.152;2023-02-22T00:20:43;37.70;;;22.98;;
29730;SDS011;16639;51.488;0.152;2023-02-22T00:23:13;34.20;;;21.48;;
29730;SDS011;16639;51.488;0.152;2023-02-22T00:25:45;38.20;;;23.88;;
29730;SDS011;16639;51.488;0.152;2023-02-22T00:28:13;39.97;;;23.25;;
29730;SDS011;16639;51.488;0.152;2023-02-22T00:30:42;36.75;;;23.83;;
29730;SDS011;16639;51.488;0.152;2023-02-22T00:33:11;34.83;;;22.25;;
29730;SDS011;16639;51.488;0.152;2023-02-22T00:35:39;36.90;;;22.65;;
29730;SDS011;16639;51.488;0.152;2023-02-22T00:38:07;42.15;;;25.52;;
29730;SDS011;16639;51.488;0.152;2023-02-22T00:40:34;42.05;;;23.60;;
29730;SDS011;16639;51.488;0.152;2023-02-22T00:43:03;38.97;;;22.70;;
29730;SDS011;16639;51.488;0.152;2023-02-22T00:45:33;39.78;;;24.50;;
29730;SDS011;16639;51.488;0.152;2023-02-22T00:48:02;38.55;;;23.67;;
29730;SDS011;16639;51.488;0.152;2023-02-22T00:50:31;36.45;;;23.83;;
29730;SDS011;16639;51.488;0.152;2023-02-22T00:52:59;41.08;;;24.23;;
29730;SDS011;16639;51.488;0.152;2023-02-22T00:55:30;41.97;;;25.23;;
29730;SDS011;16639;51.488;0.152;2023-02-22T00:58:01;39.15;;;23.73;;
29730;SDS011;16639;51.488;0.152;2023-02-22T01:00:31;41.92;;;26.20;;
29730;SDS011;16639;51.488;0.152;2023-02-22T01:03:03;42.35;;;26.60;;
29730;SDS011;16639;51.488;0.152;2023-02-22T01:05:32;45.88;;;27.08;;
29730;SDS011;16639;51.488;0.152;2023-02-22T01:08:00;47.75;;;29.35;;
29730;SDS011;16639;51.488;0.152;2023-02-22T01:10:29;49.28;;;26.38;;
29730;SDS011;16639;51.488;0.152;2023-02-22T01:12:57;41.97;;;26.00;;
29730;SDS011;16639;51.488;0.152;2023-02-22T01:15:26;43.47;;;26.10;;
29730;SDS011;16639;51.488;0.152;2023-02-22T01:17:57;44.05;;;26.67;;
29730;SDS011;16639;51.488;0.152;2023-02-22T01:20:26;47.88;;;28.27;;
29730;SDS011;16639;51.488;0.152;2023-02-22T01:22:55;46.58;;;27.02;;
29730;SDS011;16639;51.488;0.152;2023-02-22T01:25:28;48.08;;;27.45;;
29730;SDS011;16639;51.488;0.152;2023-02-22T01:27:57;51.55;;;29.38;;
29730;SDS011;16639;51.488;0.152;2023-02-22T01:30:27;45.30;;;28.25;;
29730;SDS011;16639;51.488;0.152;2023-02-22T01:32:56;45.65;;;27.45;;
29730;SDS011;16639;51.488;0.152;2023-02-22T01:35:26;44.38;;;27.65;;
29730;SDS011;16639;51.488;0.152;2023-02-22T01:37:55;51.88;;;28.75;;
29730;SDS011;16639;51.488;0.152;2023-02-22T01:40:25;44.13;;;26.77;;
29730;SDS011;16639;51.488;0.152;2023-02-22T01:43:00;49.95;;;28.77;;
29730;SDS011;16639;51.488;0.152;2023-02-22T01:48:01;50.15;;;26.45;;
29730;SDS011;16639;51.488;0.152;2023-02-22T01:50:30;47.33;;;27.85;;
29730;SDS011;16639;51.488;0.152;2023-02-22T01:53:00;52.42;;;29.48;;
29730;SDS011;16639;51.488;0.152;2023-02-22T01:55:28;43.35;;;27.38;;
29730;SDS011;16639;51.488;0.152;2023-02-22T01:57:57;47.05;;;28.75;;
29730;SDS011;16639;51.488;0.152;2023-02-22T02:00:24;46.72;;;28.38;;
29730;SDS011;16639;51.488;0.152;2023-02-22T02:02:55;45.45;;;28.88;;
29730;SDS011;16639;51.488;0.152;2023-02-22T02:05:28;46.33;;;28.45;;
29730;SDS011;16639;51.488;0.152;2023-02-22T02:07:58;45.83;;;27.35;;
29730;SDS011;16639;51.488;0.152;2023-02-22T02:10:31;51.05;;;28.60;;
29730;SDS011;16639;51.488;0.152;2023-02-22T02:13:00;48.90;;;29.15;;
29730;SDS011;16639;51.488;0.152;2023-02-22T02:15:31;43.72;;;27.55;;
29730;SDS011;16639;51.488;0.152;2023-02-22T02:18:01;46.10;;;27.85;;
29730;SDS011;16639;51.488;0.152;2023-02-22T02:40:26;50.33;;;28.27;;
29730;SDS011;16639;51.488;0.152;2023-02-22T02:43:04;41.80;;;25.70;;
29730;SDS011;16639;51.488;0.152;2023-02-22T02:45:53;45.95;;;28.23;;
29730;SDS011;16639;51.488;0.152;2023-02-22T02:48:27;41.67;;;27.05;;
29730;SDS011;16639;51.488;0.152;2023-02-22T02:50:57;52.70;;;30.08;;
29730;SDS011;16639;51.488;0.152;2023-02-22T02:53:29;48.63;;;27.88;;
29730;SDS011;16639;51.488;0.152;2023-02-22T02:56:00;48.50;;;28.70;;
29730;SDS011;16639;51.488;0.152;2023-02-22T02:58:28;45.65;;;28.20;;
29730;SDS011;16639;51.488;0.152;2023-02-22T03:00:56;51.72;;;31.80;;
29730;SDS011;16639;51.488;0.152;2023-02-22T03:06:15;50.10;;;29.65;;
29730;SDS011;16639;51.488;0.152;2023-02-22T03:08:56;47.35;;;27.42;;
29730;SDS011;16639;51.488;0.152;2023-02-22T03:11:43;50.78;;;30.75;;
29730;SDS011;16639;51.488;0.152;2023-02-22T03:14:25;50.45;;;30.05;;
29730;SDS011;16639;51.488;0.152;2023-02-22T03:17:09;49.58;;;28.42;;
29730;SDS011;16639;51.488;0.152;2023-02-22T03:19:59;53.78;;;29.48;;
29730;SDS011;16639;51.488;0.152;2023-02-22T03:25:51;55.78;;;30.98;;
29730;SDS011;16639;51.488;0.152;2023-02-22T03:28:24;58.88;;;30.40;;
29730;SDS011;16639;51.488;0.152;2023-02-22T03:30:56;55.33;;;31.95;;
29730;SDS011;16639;51.488;0.152;2023-02-22T03:33:32;58.25;;;31.42;;
29730;SDS011;16639;51.488;0.152;2023-02-22T03:36:26;59.50;;;31.45;;
29730;SDS011;16639;51.488;0.152;2023-02-22T03:38:56;51.53;;;29.70;;
29730;SDS011;16639;51.488;0.152;2023-02-22T03:41:26;52.88;;;30.83;;
29730;SDS011;16639;51.488;0.152;2023-02-22T03:43:58;53.70;;;31.30;;
29730;SDS011;16639;51.488;0.152;2023-02-22T03:46:32;59.10;;;31.77;;
29730;SDS011;16639;51.488;0.152;2023-02-22T03:49:06;53.85;;;29.83;;
29730;SDS011;16639;51.488;0.152;2023-02-22T03:51:38;55.45;;;31.25;;
29730;SDS011;16639;51.488;0.152;2023-02-22T03:54:07;52.90;;;30.95;;
29730;SDS011;16639;51.488;0.152;2023-02-22T03:57:05;55.83;;;32.10;;
29730;SDS011;16639;51.488;0.152;2023-02-22T03:59:35;57.08;;;32.00;;
29730;SDS011;16639;51.488;0.152;2023-02-22T04:02:03;63.08;;;34.00;;
29730;SDS011;16639;51.488;0.152;2023-02-22T04:04:30;58.60;;;34.33;;
29730;SDS011;16639;51.488;0.152;2023-02-22T04:06:58;60.80;;;33.75;;
29730;SDS011;16639;51.488;0.152;2023-02-22T04:09:26;57.33;;;32.35;;
29730;SDS011;16639;51.488;0.152;2023-02-22T04:11:53;57.17;;;32.25;;
29730;SDS011;16639;51.488;0.152;2023-02-22T04:14:21;63.60;;;34.75;;
29730;SDS011;16639;51.488;0.152;2023-02-22T04:16:49;62.88;;;36.15;;
29730;SDS011;16639;51.488;0.152;2023-02-22T04:19:17;60.60;;;33.28;;
29730;SDS011;16639;51.488;0.152;2023-02-22T04:21:44;62.40;;;35.45;;
29730;SDS011;16639;51.488;0.152;2023-02-22T04:24:12;66.10;;;35.28;;
29730;SDS011;16639;51.488;0.152;2023-02-22T04:26:40;60.03;;;35.13;;
29730;SDS011;16639;51.488;0.152;2023-02-22T04:29:07;62.17;;;35.08;;
29730;SDS011;16639;51.488;0.152;2023-02-22T04:31:35;60.90;;;34.83;;
29730;SDS011;16639;51.488;0.152;2023-02-22T04:34:02;62.72;;;33.80;;
29730;SDS011;16639;51.488;0.152;2023-02-22T04:36:30;56.67;;;33.35;;
29730;SDS011;16639;51.488;0.152;2023-02-22T04:38:58;61.47;;;33.80;;
29730;SDS011;16639;51.488;0.152;2023-02-22T04:41:26;64.22;;;34.28;;
29730;SDS011;16639;51.488;0.152;2023-02-22T04:43:54;53.00;;;32.10;;
29730;SDS011;16639;51.488;0.152;2023-02-22T04:46:21;60.72;;;34.15;;
29730;SDS011;16639;51.488;0.152;2023-02-22T04:48:49;60.70;;;31.60;;
29730;SDS011;16639;51.488;0.152;2023-02-22T04:51:16;55.65;;;32.65;;
29730;SDS011;16639;51.488;0.152;2023-02-22T04:53:45;55.83;;;34.03;;
29730;SDS011;16639;51.488;0.152;2023-02-22T04:56:13;55.85;;;32.38;;
29730;SDS011;16639;51.488;0.152;2023-02-22T04:58:42;57.42;;;32.58;;
29730;SDS011;16639;51.488;0.152;2023-02-22T05:01:09;55.92;;;33.95;;
29730;SDS011;16639;51.488;0.152;2023-02-22T05:03:37;55.78;;;33.83;;
29730;SDS011;16639;51.488;0.152;2023-02-22T05:06:05;63.13;;;33.22;;
29730;SDS011;16639;51.488;0.152;2023-02-22T05:08:33;54.33;;;32.75;;
29730;SDS011;16639;51.488;0.152;2023-02-22T05:11:00;56.83;;;31.77;;
29730;SDS011;16639;51.488;0.152;2023-02-22T05:13:28;59.60;;;33.92;;
29730;SDS011;16639;51.488;0.152;2023-02-22T05:15:55;57.78;;;32.90;;
29730;SDS011;16639;51.488;0.152;2023-02-22T05:18:23;59.92;;;33.97;;
29730;SDS011;16639;51.488;0.152;2023-02-22T05:20:50;66.47;;;34.22;;
29730;SDS011;16639;51.488;0.152;2023-02-22T05:23:17;56.63;;;31.92;;
29730;SDS011;16639;51.488;0.152;2023-02-22T05:25:44;58.70;;;33.55;;
29730;SDS011;16639;51.488;0.152;2023-02-22T05:28:12;58.30;;;33.33;;
29730;SDS011;16639;51.488;0.152;2023-02-22T05:30:40;60.47;;;33.63;;
29730;SDS011;16639;51.488;0.152;2023-02-22T05:33:08;55.75;;;32.67;;
29730;SDS011;16639;51.488;0.152;2023-02-22T05:35:36;60.53;;;32.83;;
29730;SDS011;16639;51.488;0.152;2023-02-22T05:38:04;63.00;;;34.03;;
29730;SDS011;16639;51.488;0.152;2023-02-22T05:40:31;62.20;;;34.72;;
29730;SDS011;16639;51.488;0.152;2023-02-22T05:43:01;61.63;;;34.65;;
29730;SDS011;16639;51.488;0.152;2023-02-22T05:45:28;61.85;;;34.33;;
29730;SDS011;16639;51.488;0.152;2023-02-22T05:47:56;60.25;;;33.08;;
29730;SDS011;16639;51.488;0.152;2023-02-22T05:50:23;63.97;;;35.22;;
29730;SDS011;16639;51.488;0.152;2023-02-22T05:52:52;56.63;;;33.70;;
29730;SDS011;16639;51.488;0.152;2023-02-22T05:55:21;66.18;;;35.15;;
29730;SDS011;16639;51.488;0.152;2023-02-22T05:57:49;63.85;;;34.47;;
29730;SDS011;16639;51.488;0.152;2023-02-22T06:00:23;67.13;;;36.17;;
29730;SDS011;16639;51.488;0.152;2023-02-22T06:02:56;57.65;;;33.47;;
29730;SDS011;16639;51.488;0.152;2023-02-22T06:05:29;64.60;;;35.88;;
29730;SDS011;16639;51.488;0.152;2023-02-22T06:07:57;68.03;;;37.30;;
29730;SDS011;16639;51.488;0.152;2023-02-22T06:10:25;69.82;;;36.80;;
29730;SDS011;16639;51.488;0.152;2023-02-22T06:12:53;67.40;;;35.58;;
29730;SDS011;16639;51.488;0.152;2023-02-22T06:15:21;67.50;;;34.88;;
29730;SDS011;16639;51.488;0.152;2023-02-22T06:17:50;69.10;;;38.15;;
29730;SDS011;16639;51.488;0.152;2023-02-22T06:20:20;67.18;;;36.70;;
29730;SDS011;16639;51.488;0.152;2023-02-22T06:22:49;64.95;;;35.58;;
29730;SDS011;16639;51.488;0.152;2023-02-22T06:25:18;65.38;;;35.97;;
29730;SDS011;16639;51.488;0.152;2023-02-22T06:27:47;70.03;;;37.60;;
29730;SDS011;16639;51.488;0.152;2023-02-22T06:30:16;70.20;;;37.70;;
29730;SDS011;16639;51.488;0.152;2023-02-22T06:32:45;69.20;;;36.95;;
29730;SDS011;16639;51.488;0.152;2023-02-22T06:35:13;65.90;;;36.55;;
29730;SDS011;16639;51.488;0.152;2023-02-22T06:37:42;74.03;;;38.95;;
29730;SDS011;16639;51.488;0.152;2023-02-22T06:40:09;67.18;;;37.53;;
29730;SDS011;16639;51.488;0.152;2023-02-22T06:42:38;76.15;;;41.00;;
29730;SDS011;16639;51.488;0.152;2023-02-22T06:45:05;70.75;;;37.35;;
29730;SDS011;16639;51.488;0.152;2023-02-22T06:47:40;75.00;;;37.58;;
29730;SDS011;16639;51.488;0.152;2023-02-22T06:50:15;69.18;;;35.97;;
29730;SDS011;16639;51.488;0.152;2023-02-22T06:52:55;75.00;;;39.72;;
29730;SDS011;16639;51.488;0.152;2023-02-22T06:55:24;72.47;;;37.75;;
29730;SDS011;16639;51.488;0.152;2023-02-22T06:57:53;77.88;;;39.70;;
29730;SDS011;16639;51.488;0.152;2023-02-22T07:00:22;73.82;;;38.58;;
29730;SDS011;16639;51.488;0.152;2023-02-22T07:02:53;74.40;;;38.75;;
29730;SDS011;16639;51.488;0.152;2023-02-22T07:05:22;78.13;;;40.03;;
29730;SDS011;16639;51.488;0.152;2023-02-22T07:07:52;70.07;;;36.97;;
29730;SDS011;16639;51.488;0.152;2023-02-22T07:10:23;77.07;;;38.78;;
29730;SDS011;16639;51.488;0.152;2023-02-22T07:12:53;79.45;;;41.42;;
29730;SDS011;16639;51.488;0.152;2023-02-22T07:15:22;77.88;;;38.72;;
29730;SDS011;16639;51.488;0.152;2023-02-22T07:17:51;78.10;;;39.88;;
29730;SDS011;16639;51.488;0.152;2023-02-22T07:20:18;83.07;;;39.33;;
29730;SDS011;16639;51.488;0.152;2023-02-22T07:22:48;83.70;;;42.00;;
29730;SDS011;16639;51.488;0.152;2023-02-22T07:25:16;78.35;;;39.10;;
29730;SDS011;16639;51.488;0.152;2023-02-22T07:27:44;83.75;;;42.17;;
29730;SDS011;16639;51.488;0.152;2023-02-22T07:30:31;79.38;;;42.45;;
29730;SDS011;16639;51.488;0.152;2023-02-22T07:33:01;74.95;;;39.22;;
29730;SDS011;16639;51.488;0.152;2023-02-22T07:35:31;80.43;;;38.17;;
29730;SDS011;16639;51.488;0.152;2023-02-22T07:38:03;72.28;;;36.95;;
29730;SDS011;16639;51.488;0.152;2023-02-22T07:40:31;76.22;;;37.88;;
29730;SDS011;16639;51.488;0.152;2023-02-22T07:43:00;74.80;;;37.78;;
29730;SDS011;16639;51.488;0.152;2023-02-22T07:45:33;72.55;;;38.03;;
29730;SDS011;16639;51.488;0.152;2023-02-22T07:48:02;70.18;;;37.08;;
29730;SDS011;16639;51.488;0.152;2023-02-22T07:50:31;84.22;;;40.22;;
29730;SDS011;16639;51.488;0.152;2023-02-22T07:53:04;72.38;;;35.83;;
29730;SDS011;16639;51.488;0.152;2023-02-22T07:55:33;74.85;;;36.67;;
29730;SDS011;16639;51.488;0.152;2023-02-22T07:58:02;85.85;;;37.03;;
29730;SDS011;16639;51.488;0.152;2023-02-22T08:00:35;71.50;;;35.78;;
29730;SDS011;16639;51.488;0.152;2023-02-22T08:03:08;73.45;;;36.55;;
29730;SDS011;16639;51.488;0.152;2023-02-22T08:05:38;67.40;;;34.42;;
29730;SDS011;16639;51.488;0.152;2023-02-22T08:08:07;73.80;;;36.50;;
29730;SDS011;16639;51.488;0.152;2023-02-22T08:10:35;74.30;;;34.97;;
29730;SDS011;16639;51.488;0.152;2023-02-22T08:13:03;72.28;;;34.85;;
29730;SDS011;16639;51.488;0.152;2023-02-22T08:15:32;65.85;;;33.50;;
29730;SDS011;16639;51.488;0.152;2023-02-22T08:18:01;77.25;;;36.72;;
29730;SDS011;16639;51.488;0.152;2023-02-22T08:20:30;67.68;;;30.67;;
29730;SDS011;16639;51.488;0.152;2023-02-22T08:22:57;70.93;;;34.00;;
29730;SDS011;16639;51.488;0.152;2023-02-22T08:25:25;63.13;;;32.63;;
29730;SDS011;16639;51.488;0.152;2023-02-22T08:27:58;64.15;;;31.88;;
29730;SDS011;16639;51.488;0.152;2023-02-22T08:30:27;73.95;;;34.33;;
29730;SDS011;16639;51.488;0.152;2023-02-22T08:32:57;67.38;;;31.60;;
29730;SDS011;16639;51.488;0.152;2023-02-22T08:35:25;60.85;;;30.23;;
29730;SDS011;16639;51.488;0.152;2023-02-22T08:37:55;64.47;;;29.65;;
29730;SDS011;16639;51.488;0.152;2023-02-22T08:40:29;64.50;;;31.10;;
29730;SDS011;16639;51.488;0.152;2023-02-22T08:42:58;61.22;;;28.88;;
29730;SDS011;16639;51.488;0.152;2023-02-22T08:45:36;59.90;;;27.50;;
29730;SDS011;16639;51.488;0.152;2023-02-22T08:48:07;65.00;;;30.25;;
29730;SDS011;16639;51.488;0.152;2023-02-22T08:50:35;57.83;;;28.80;;
29730;SDS011;16639;51.488;0.152;2023-02-22T08:53:03;54.70;;;27.30;;
29730;SDS011;16639;51.488;0.152;2023-02-22T08:55:32;59.97;;;28.17;;
29730;SDS011;16639;51.488;0.152;2023-02-22T08:58:02;59.42;;;28.08;;
29730;SDS011;16639;51.488;0.152;2023-02-22T09:00:32;50.75;;;24.80;;
29730;SDS011;16639;51.488;0.152;2023-02-22T09:03:00;47.63;;;24.00;;
29730;SDS011;16639;51.488;0.152;2023-02-22T09:05:28;51.90;;;24.75;;
29730;SDS011;16639;51.488;0.152;2023-02-22T09:07:57;46.78;;;23.80;;
29730;SDS011;16639;51.488;0.152;2023-02-22T09:10:26;50.40;;;23.33;;
29730;SDS011;16639;51.488;0.152;2023-02-22T09:12:56;50.25;;;23.75;;
29730;SDS011;16639;51.488;0.152;2023-02-22T09:15:27;42.50;;;21.30;;
29730;SDS011;16639;51.488;0.152;2023-02-22T09:17:54;47.58;;;23.45;;
29730;SDS011;16639;51.488;0.152;2023-02-22T09:20:26;45.28;;;21.73;;
29730;SDS011;16639;51.488;0.152;2023-02-22T09:22:57;43.47;;;21.52;;
29730;SDS011;16639;51.488;0.152;2023-02-22T09:25:26;41.33;;;20.58;;
29730;SDS011;16639;51.488;0.152;2023-02-22T09:27:54;40.97;;;20.05;;
29730;SDS011;16639;51.488;0.152;2023-02-22T09:30:23;42.42;;;19.42;;
29730;SDS011;16639;51.488;0.152;2023-02-22T09:33:11;39.13;;;18.33;;
29730;SDS011;16639;51.488;0.152;2023-02-22T09:35:47;43.00;;;18.83;;
29730;SDS011;16639;51.488;0.152;2023-02-22T09:38:17;34.60;;;17.80;;
29730;SDS011;16639;51.488;0.152;2023-02-22T09:41:09;33.78;;;16.10;;
29730;SDS011;16639;51.488;0.152;2023-02-22T09:44:02;39.20;;;17.50;;
29730;SDS011;16639;51.488;0.152;2023-02-22T09:46:53;35.73;;;18.63;;
29730;SDS011;16639;51.488;0.152;2023-02-22T09:49:23;34.17;;;16.20;;
29730;SDS011;16639;51.488;0.152;2023-02-22T09:52:00;35.58;;;16.55;;
29730;SDS011;16639;51.488;0.152;2023-02-22T09:54:48;30.15;;;15.70;;
29730;SDS011;16639;51.488;0.152;2023-02-22T09:57:27;34.92;;;17.08;;
29730;SDS011;16639;51.488;0.152;2023-02-22T10:00:03;38.33;;;15.38;;
29730;SDS011;16639;51.488;0.152;2023-02-22T10:02:53;34.38;;;16.92;;
29730;SDS011;16639;51.488;0.152;2023-02-22T10:05:38;33.30;;;17.15;;
29730;SDS011;16639;51.488;0.152;2023-02-22T10:08:12;34.45;;;17.30;;
29730;SDS011;16639;51.488;0.152;2023-02-22T10:10:42;36.95;;;18.08;;
29730;SDS011;16639;51.488;0.152;2023-02-22T10:26:46;40.97;;;19.27;;
29730;SDS011;16639;51.488;0.152;2023-02-22T10:32:02;40.55;;;19.10;;
29730;SDS011;16639;51.488;0.152;2023-02-22T10:34:41;37.50;;;17.83;;
29730;SDS011;16639;51.488;0.152;2023-02-22T10:37:25;40.88;;;19.77;;
29730;SDS011;16639;51.488;0.152;2023-02-22T10:40:02;37.63;;;18.45;;
29730;SDS011;16639;51.488;0.152;2023-02-22T10:42:43;39.92;;;20.20;;
29730;SDS011;16639;51.488;0.152;2023-02-22T10:45:27;39.88;;;19.05;;
29730;SDS011;16639;51.488;0.152;2023-02-22T10:48:03;35.83;;;18.38;;
29730;SDS011;16639;51.488;0.152;2023-02-22T10:50:53;37.72;;;19.65;;
29730;SDS011;16639;51.488;0.152;2023-02-22T10:53:28;34.28;;;18.85;;
29730;SDS011;16639;51.488;0.152;2023-02-22T10:58:43;35.63;;;18.27;;
29730;SDS011;16639;51.488;0.152;2023-02-22T11:06:43;40.50;;;19.77;;
29730;SDS011;16639;51.488;0.152;2023-02-22T11:09:13;42.03;;;22.88;;
29730;SDS011;16639;51.488;0.152;2023-02-22T11:12:06;34.53;;;18.73;;
29730;SDS011;16639;51.488;0.152;2023-02-22T11:14:42;32.15;;;18.80;;
29730;SDS011;16639;51.488;0.152;2023-02-22T11:17:09;37.55;;;20.67;;
29730;SDS011;16639;51.488;0.152;2023-02-22T11:19:45;37.88;;;19.38;;
29730;SDS011;16639;51.488;0.152;2023-02-22T11:22:22;44.40;;;23.08;;
29730;SDS011;16639;51.488;0.152;2023-02-22T11:24:58;34.95;;;19.83;;
29730;SDS011;16639;51.488;0.152;2023-02-22T11:27:41;37.40;;;19.77;;
29730;SDS011;16639;51.488;0.152;2023-02-22T11:30:28;35.78;;;20.17;;
29730;SDS011;16639;51.488;0.152;2023-02-22T11:32:59;37.50;;;20.02;;
29730;SDS011;16639;51.488;0.152;2023-02-22T11:38:15;35.25;;;18.63;;
29730;SDS011;16639;51.488;0.152;2023-02-22T11:43:47;35.28;;;19.45;;
29730;SDS011;16639;51.488;0.152;2023-02-22T11:46:16;34.08;;;19.52;;
29730;SDS011;16639;51.488;0.152;2023-02-22T11:49:01;33.97;;;18.77;;
29730;SDS011;16639;51.488;0.152;2023-02-22T12:03:09;30.98;;;17.30;;
29730;SDS011;16639;51.488;0.152;2023-02-22T12:11:54;34.50;;;17.73;;
29730;SDS011;16639;51.488;0.152;2023-02-22T12:14:29;36.17;;;17.98;;
29730;SDS011;16639;51.488;0.152;2023-02-22T12:19:43;31.77;;;16.40;;
29730;SDS011;16639;51.488;0.152;2023-02-22T12:27:47;28.10;;;15.10;;
29730;SDS011;16639;51.488;0.152;2023-02-22T12:30:32;31.83;;;16.33;;
29730;SDS011;16639;51.488;0.152;2023-02-22T12:33:08;29.27;;;14.27;;
29730;SDS011;16639;51.488;0.152;2023-02-22T12:35:41;26.15;;;14.07;;
29730;SDS011;16639;51.488;0.152;2023-02-22T12:38:24;27.92;;;16.00;;
29730;SDS011;16639;51.488;0.152;2023-02-22T12:41:02;27.80;;;15.48;;
29730;SDS011;16639;51.488;0.152;2023-02-22T12:43:59;30.30;;;15.57;;
29730;SDS011;16639;51.488;0.152;2023-02-22T12:47:05;28.13;;;15.13;;
29730;SDS011;16639;51.488;0.152;2023-02-22T12:54:58;32.17;;;17.02;;
29730;SDS011;16639;51.488;0.152;2023-02-22T13:00:36;29.00;;;16.48;;
29730;SDS011;16639;51.488;0.152;2023-02-22T13:05:41;32.72;;;20.23;;
29730;SDS011;16639;51.488;0.152;2023-02-22T13:08:23;32.05;;;17.88;;
29730;SDS011;16639;51.488;0.152;2023-02-22T13:26:46;32.70;;;20.17;;
29730;SDS011;16639;51.488;0.152;2023-02-22T13:29:38;34.15;;;19.10;;
29730;SDS011;16639;51.488;0.152;2023-02-22T13:32:43;35.92;;;19.05;;
29730;SDS011;16639;51.488;0.152;2023-02-22T13:41:07;32.88;;;17.35;;
29730;SDS011;16639;51.488;0.152;2023-02-22T13:49:37;31.63;;;17.83;;
29730;SDS011;16639;51.488;0.152;2023-02-22T13:52:13;31.60;;;16.70;;
29730;SDS011;16639;51.488;0.152;2023-02-22T13:57:41;32.20;;;18.83;;
29730;SDS011;16639;51.488;0.152;2023-02-22T14:10:49;30.52;;;16.77;;
29730;SDS011;16639;51.488;0.152;2023-02-22T14:13:23;31.80;;;17.13;;
29730;SDS011;16639;51.488;0.152;2023-02-22T14:18:35;27.08;;;15.80;;
29730;SDS011;16639;51.488;0.152;2023-02-22T14:21:10;25.73;;;13.20;;
29730;SDS011;16639;51.488;0.152;2023-02-22T14:23:43;27.48;;;14.68;;
29730;SDS011;16639;51.488;0.152;2023-02-22T14:31:29;21.55;;;12.50;;
29730;SDS011;16639;51.488;0.152;2023-02-22T14:39:44;22.13;;;13.30;;
29730;SDS011;16639;51.488;0.152;2023-02-22T14:47:26;23.73;;;14.27;;
29730;SDS011;16639;51.488;0.152;2023-02-22T14:50:41;22.42;;;13.60;;
29730;SDS011;16639;51.488;0.152;2023-02-22T14:53:04;23.75;;;14.07;;
29730;SDS011;16639;51.488;0.152;2023-02-22T14:55:43;24.88;;;14.68;;
29730;SDS011;16639;51.488;0.152;2023-02-22T14:58:24;31.20;;;15.43;;
29730;SDS011;16639;51.488;0.152;2023-02-22T15:19:24;18.73;;;11.23;;
29730;SDS011;16639;51.488;0.152;2023-02-22T15:22:57;19.95;;;13.35;;
29730;SDS011;16639;51.488;0.152;2023-02-22T15:25:35;20.70;;;12.57;;
29730;SDS011;16639;51.488;0.152;2023-02-22T15:28:05;21.45;;;11.77;;
29730;SDS011;16639;51.488;0.152;2023-02-22T15:30:35;24.02;;;10.90;;
29730;SDS011;16639;51.488;0.152;2023-02-22T15:33:16;19.52;;;11.80;;
29730;SDS011;16639;51.488;0.152;2023-02-22T15:35:54;18.85;;;11.85;;
29730;SDS011;16639;51.488;0.152;2023-02-22T15:38:27;17.05;;;10.52;;
29730;SDS011;16639;51.488;0.152;2023-02-22T15:41:03;22.65;;;11.52;;
29730;SDS011;16639;51.488;0.152;2023-02-22T15:43:35;20.38;;;11.13;;
29730;SDS011;16639;51.488;0.152;2023-02-22T15:46:04;17.08;;;10.60;;
29730;SDS011;16639;51.488;0.152;2023-02-22T15:48:32;17.20;;;10.93;;
29730;SDS011;16639;51.488;0.152;2023-02-22T15:51:06;17.48;;;10.45;;
29730;SDS011;16639;51.488;0.152;2023-02-22T15:53:43;18.30;;;10.70;;
29730;SDS011;16639;51.488;0.152;2023-02-22T15:56:16;21.23;;;11.15;;
29730;SDS011;16639;51.488;0.152;2023-02-22T15:58:49;21.88;;;12.88;;
29730;SDS011;16639;51.488;0.152;2023-02-22T16:01:24;24.58;;;12.70;;
29730;SDS011;16639;51.488;0.152;2023-02-22T16:03:55;22.35;;;12.90;;
29730;SDS011;16639;51.488;0.152;2023-02-22T16:06:34;29.23;;;14.90;;
29730;SDS011;16639;51.488;0.152;2023-02-22T16:09:20;24.38;;;13.77;;
29730;SDS011;16639;51.488;0.152;2023-02-22T16:12:39;26.75;;;13.55;;
29730;SDS011;16639;51.488;0.152;2023-02-22T16:14:46;24.10;;;13.75;;
29730;SDS011;16639;51.488;0.152;2023-02-22T16:19:55;25.90;;;13.82;;
29730;SDS011;16639;51.488;0.152;2023-02-22T16:25:11;25.55;;;13.40;;
29730;SDS011;16639;51.488;0.152;2023-02-22T16:32:55;24.70;;;14.13;;
29730;SDS011;16639;51.488;0.152;2023-02-22T16:35:24;22.00;;;12.98;;
29730;SDS011;16639;51.488;0.152;2023-02-22T16:44:44;15.05;;;9.82;;
29730;SDS011;16639;51.488;0.152;2023-02-22T16:47:11;16.70;;;10.45;;
29730;SDS011;16639;51.488;0.152;2023-02-22T16:49:48;21.23;;;11.13;;
29730;SDS011;16639;51.488;0.152;2023-02-22T16:52:21;20.85;;;12.27;;
29730;SDS011;16639;51.488;0.152;2023-02-22T16:54:48;14.68;;;9.00;;
29730;SDS011;16639;51.488;0.152;2023-02-22T16:57:18;16.95;;;9.25;;
29730;SDS011;16639;51.488;0.152;2023-02-22T16:59:48;12.38;;;8.55;;
29730;SDS011;16639;51.488;0.152;2023-02-22T17:06:13;12.55;;;7.22;;
29730;SDS011;16639;51.488;0.152;2023-02-22T17:09:31;9.40;;;5.75;;
29730;SDS011;16639;51.488;0.152;2023-02-22T17:12:03;8.40;;;6.32;;
29730;SDS011;16639;51.488;0.152;2023-02-22T17:14:32;11.80;;;7.03;;
29730;SDS011;16639;51.488;0.152;2023-02-22T17:17:07;8.55;;;6.57;;
29730;SDS011;16639;51.488;0.152;2023-02-22T17:20:12;7.47;;;5.55;;
29730;SDS011;16639;51.488;0.152;2023-02-22T17:22:56;11.20;;;6.55;;
29730;SDS011;16639;51.488;0.152;2023-02-22T17:31:45;11.70;;;6.13;;
29730;SDS011;16639;51.488;0.152;2023-02-22T17:37:52;16.92;;;9.02;;
29730;SDS011;16639;51.488;0.152;2023-02-22T17:40:20;21.38;;;10.45;;
29730;SDS011;16639;51.488;0.152;2023-02-22T17:46:44;65.07;;;31.77;;
29730;SDS011;16639;51.488;0.152;2023-02-22T17:49:12;25.35;;;14.82;;
29730;SDS011;16639;51.488;0.152;2023-02-22T17:51:39;11.38;;;7.13;;
29730;SDS011;16639;51.488;0.152;2023-02-22T17:54:07;9.88;;;5.72;;
29730;SDS011;16639;51.488;0.152;2023-02-22T17:56:37;8.70;;;5.40;;
29730;SDS011;16639;51.488;0.152;2023-02-22T17:59:05;18.55;;;9.55;;
29730;SDS011;16639;51.488;0.152;2023-02-22T18:01:34;12.13;;;7.03;;
29730;SDS011;16639;51.488;0.152;2023-02-22T18:04:02;9.43;;;6.43;;
29730;SDS011;16639;51.488;0.152;2023-02-22T18:06:31;13.65;;;7.35;;
29730;SDS011;16639;51.488;0.152;2023-02-22T18:08:58;10.60;;;7.03;;
29730;SDS011;16639;51.488;0.152;2023-02-22T18:11:27;12.80;;;6.38;;
29730;SDS011;16639;51.488;0.152;2023-02-22T18:13:58;10.75;;;5.93;;
29730;SDS011;16639;51.488;0.152;2023-02-22T18:16:25;9.25;;;6.35;;
29730;SDS011;16639;51.488;0.152;2023-02-22T18:18:53;11.48;;;6.55;;
29730;SDS011;16639;51.488;0.152;2023-02-22T18:21:22;10.95;;;6.15;;
29730;SDS011;16639;51.488;0.152;2023-02-22T18:23:52;10.88;;;6.85;;
29730;SDS011;16639;51.488;0.152;2023-02-22T18:26:21;8.40;;;6.40;;